sensor_id;sensor_type;location;lat;lon;timestamp;pressure;altitude;pressure_sealevel;temperature
70050;BMP180;57391;51.306;22.680;2023-03-14T00:00:11;98414.80;;;8.20
70050;BMP180;57391;51.306;22.680;2023-03-14T00:02:59;98414.00;;;8.20
70050;BMP180;57391;51.306;22.680;2023-03-14T00:05:26;98413.00;;;8.20
70050;BMP180;57391;51.306;22.680;2023-03-14T00:07:53;98411.00;;;8.20
70050;BMP180;57391;51.306;22.680;2023-03-14T00:10:21;98412.60;;;8.20
70050;BMP180;57391;51.306;22.680;2023-03-14T00:12:48;98404.80;;;8.20
70050;BMP180;57391;51.306;22.680;2023-03-14T00:15:15;98399.20;;;8.20
70050;BMP180;57391;51.306;22.680;2023-03-14T00:17:43;98404.00;;;8.20
70050;BMP180;57391;51.306;22.680;2023-03-14T00:20:11;98403.20;;;8.16
70050;BMP180;57391;51.306;22.680;2023-03-14T00:22:39;98414.00;;;8.10
70050;BMP180;57391;51.306;22.680;2023-03-14T00:25:09;98412.40;;;8.12
70050;BMP180;57391;51.306;22.680;2023-03-14T00:27:36;98410.80;;;8.12
70050;BMP180;57391;51.306;22.680;2023-03-14T00:30:05;98410.60;;;8.10
70050;BMP180;57391;51.306;22.680;2023-03-14T00:32:35;98399.60;;;8.10
70050;BMP180;57391;51.306;22.680;2023-03-14T00:35:03;98402.80;;;8.10
70050;BMP180;57391;51.306;22.680;2023-03-14T00:37:31;98400.00;;;8.10
70050;BMP180;57391;51.306;22.680;2023-03-14T00:39:58;98397.40;;;8.10
70050;BMP180;57391;51.306;22.680;2023-03-14T00:42:26;98399.00;;;8.10
70050;BMP180;57391;51.306;22.680;2023-03-14T00:44:54;98391.00;;;8.10
70050;BMP180;57391;51.306;22.680;2023-03-14T00:47:21;98389.80;;;8.10
70050;BMP180;57391;51.306;22.680;2023-03-14T00:49:48;98393.00;;;8.10
70050;BMP180;57391;51.306;22.680;2023-03-14T00:52:15;98383.00;;;8.10
70050;BMP180;57391;51.306;22.680;2023-03-14T00:54:43;98378.80;;;8.10
70050;BMP180;57391;51.306;22.680;2023-03-14T00:57:10;98369.40;;;8.10
70050;BMP180;57391;51.306;22.680;2023-03-14T00:59:37;98371.20;;;8.10
70050;BMP180;57391;51.306;22.680;2023-03-14T01:02:04;98354.60;;;8.12
70050;BMP180;57391;51.306;22.680;2023-03-14T01:04:31;98356.40;;;8.18
70050;BMP180;57391;51.306;22.680;2023-03-14T01:06:58;98351.80;;;8.20
70050;BMP180;57391;51.306;22.680;2023-03-14T01:09:25;98342.40;;;8.20
70050;BMP180;57391;51.306;22.680;2023-03-14T01:11:52;98345.20;;;8.20
70050;BMP180;57391;51.306;22.680;2023-03-14T01:14:19;98341.20;;;8.20
70050;BMP180;57391;51.306;22.680;2023-03-14T01:16:47;98334.40;;;8.20
70050;BMP180;57391;51.306;22.680;2023-03-14T01:19:14;98325.60;;;8.20
70050;BMP180;57391;51.306;22.680;2023-03-14T01:21:41;98334.00;;;8.20
70050;BMP180;57391;51.306;22.680;2023-03-14T01:24:11;98326.20;;;8.20
70050;BMP180;57391;51.306;22.680;2023-03-14T01:26:38;98331.00;;;8.28
70050;BMP180;57391;51.306;22.680;2023-03-14T01:29:06;98325.80;;;8.30
70050;BMP180;57391;51.306;22.680;2023-03-14T01:31:35;98323.60;;;8.30
70050;BMP180;57391;51.306;22.680;2023-03-14T01:34:02;98320.60;;;8.30
70050;BMP180;57391;51.306;22.680;2023-03-14T01:36:29;98302.40;;;8.30
70050;BMP180;57391;51.306;22.680;2023-03-14T01:38:57;98303.40;;;8.30
70050;BMP180;57391;51.306;22.680;2023-03-14T01:41:25;98304.40;;;8.30
70050;BMP180;57391;51.306;22.680;2023-03-14T01:43:54;98297.20;;;8.32
70050;BMP180;57391;51.306;22.680;2023-03-14T01:52:18;98296.00;;;8.40
70050;BMP180;57391;51.306;22.680;2023-03-14T01:54:53;98298.40;;;8.40
70050;BMP180;57391;51.306;22.680;2023-03-14T01:57:35;98301.80;;;8.50
70050;BMP180;57391;51.306;22.680;2023-03-14T02:00:09;98302.20;;;8.50
70050;BMP180;57391;51.306;22.680;2023-03-14T02:02:45;98295.20;;;8.50
70050;BMP180;57391;51.306;22.680;2023-03-14T02:05:19;98294.60;;;8.50
70050;BMP180;57391;51.306;22.680;2023-03-14T02:07:56;98291.40;;;8.50
70050;BMP180;57391;51.306;22.680;2023-03-14T02:10:38;98293.60;;;8.50
70050;BMP180;57391;51.306;22.680;2023-03-14T02:13:07;98295.00;;;8.50
70050;BMP180;57391;51.306;22.680;2023-03-14T02:15:45;98289.60;;;8.50
70050;BMP180;57391;51.306;22.680;2023-03-14T02:18:20;98291.20;;;8.50
70050;BMP180;57391;51.306;22.680;2023-03-14T02:21:14;98284.80;;;8.50
70050;BMP180;57391;51.306;22.680;2023-03-14T02:26:43;98267.60;;;8.60
70050;BMP180;57391;51.306;22.680;2023-03-14T02:29:11;98266.00;;;8.60
70050;BMP180;57391;51.306;22.680;2023-03-14T02:31:38;98271.80;;;8.60
70050;BMP180;57391;51.306;22.680;2023-03-14T02:34:06;98259.80;;;8.60
70050;BMP180;57391;51.306;22.680;2023-03-14T02:36:34;98257.40;;;8.64
70050;BMP180;57391;51.306;22.680;2023-03-14T02:39:11;98259.20;;;8.70
70050;BMP180;57391;51.306;22.680;2023-03-14T02:41:42;98258.00;;;8.70
70050;BMP180;57391;51.306;22.680;2023-03-14T02:44:12;98256.60;;;8.70
70050;BMP180;57391;51.306;22.680;2023-03-14T02:46:39;98246.00;;;8.70
70050;BMP180;57391;51.306;22.680;2023-03-14T02:49:10;98243.40;;;8.70
70050;BMP180;57391;51.306;22.680;2023-03-14T02:51:41;98250.80;;;8.70
70050;BMP180;57391;51.306;22.680;2023-03-14T02:54:10;98245.60;;;8.70
70050;BMP180;57391;51.306;22.680;2023-03-14T02:56:37;98240.00;;;8.70
70050;BMP180;57391;51.306;22.680;2023-03-14T02:59:05;98236.40;;;8.70
70050;BMP180;57391;51.306;22.680;2023-03-14T03:01:52;98239.20;;;8.72
70050;BMP180;57391;51.306;22.680;2023-03-14T03:04:20;98230.60;;;8.78
70050;BMP180;57391;51.306;22.680;2023-03-14T03:06:47;98239.00;;;8.78
70050;BMP180;57391;51.306;22.680;2023-03-14T03:09:14;98238.60;;;8.80
70050;BMP180;57391;51.306;22.680;2023-03-14T03:11:41;98233.00;;;8.80
70050;BMP180;57391;51.306;22.680;2023-03-14T03:14:11;98235.80;;;8.80
70050;BMP180;57391;51.306;22.680;2023-03-14T03:16:38;98234.40;;;8.80
70050;BMP180;57391;51.306;22.680;2023-03-14T03:19:05;98238.00;;;8.80
70050;BMP180;57391;51.306;22.680;2023-03-14T03:21:32;98231.60;;;8.80
70050;BMP180;57391;51.306;22.680;2023-03-14T03:23:59;98227.00;;;8.88
70050;BMP180;57391;51.306;22.680;2023-03-14T03:26:26;98223.80;;;8.90
70050;BMP180;57391;51.306;22.680;2023-03-14T03:28:53;98225.80;;;8.90
70050;BMP180;57391;51.306;22.680;2023-03-14T03:31:22;98219.80;;;8.90
70050;BMP180;57391;51.306;22.680;2023-03-14T03:33:49;98212.20;;;8.90
70050;BMP180;57391;51.306;22.680;2023-03-14T03:36:22;98210.80;;;8.90
70050;BMP180;57391;51.306;22.680;2023-03-14T03:38:50;98202.60;;;8.90
70050;BMP180;57391;51.306;22.680;2023-03-14T03:41:17;98196.00;;;8.90
70050;BMP180;57391;51.306;22.680;2023-03-14T03:43:44;98190.00;;;8.90
70050;BMP180;57391;51.306;22.680;2023-03-14T03:46:12;98185.00;;;8.90
70050;BMP180;57391;51.306;22.680;2023-03-14T03:48:39;98173.40;;;8.90
70050;BMP180;57391;51.306;22.680;2023-03-14T03:51:13;98177.00;;;8.90
70050;BMP180;57391;51.306;22.680;2023-03-14T03:53:41;98167.00;;;8.90
70050;BMP180;57391;51.306;22.680;2023-03-14T03:56:10;98160.40;;;8.80
70050;BMP180;57391;51.306;22.680;2023-03-14T03:58:38;98159.40;;;8.78
70050;BMP180;57391;51.306;22.680;2023-03-14T04:01:06;98159.20;;;8.70
70050;BMP180;57391;51.306;22.680;2023-03-14T04:03:34;98155.00;;;8.70
70050;BMP180;57391;51.306;22.680;2023-03-14T04:06:08;98149.40;;;8.60
70050;BMP180;57391;51.306;22.680;2023-03-14T04:08:38;98147.80;;;8.58
70050;BMP180;57391;51.306;22.680;2023-03-14T04:11:08;98140.60;;;8.50
70050;BMP180;57391;51.306;22.680;2023-03-14T04:13:54;98150.80;;;8.50
70050;BMP180;57391;51.306;22.680;2023-03-14T04:16:24;98144.40;;;8.40
70050;BMP180;57391;51.306;22.680;2023-03-14T04:18:54;98148.20;;;8.40
70050;BMP180;57391;51.306;22.680;2023-03-14T04:21:23;98149.80;;;8.30
70050;BMP180;57391;51.306;22.680;2023-03-14T04:23:54;98145.40;;;8.30
70050;BMP180;57391;51.306;22.680;2023-03-14T04:26:21;98145.20;;;8.30
70050;BMP180;57391;51.306;22.680;2023-03-14T04:28:48;98131.20;;;8.30
70050;BMP180;57391;51.306;22.680;2023-03-14T04:31:20;98131.20;;;8.28
70050;BMP180;57391;51.306;22.680;2023-03-14T04:33:47;98129.40;;;8.22
70050;BMP180;57391;51.306;22.680;2023-03-14T04:36:17;98129.20;;;8.20
70050;BMP180;57391;51.306;22.680;2023-03-14T04:38:45;98125.00;;;8.20
70050;BMP180;57391;51.306;22.680;2023-03-14T04:41:13;98122.40;;;8.20
70050;BMP180;57391;51.306;22.680;2023-03-14T04:43:40;98122.20;;;8.20
70050;BMP180;57391;51.306;22.680;2023-03-14T04:46:09;98115.80;;;8.20
70050;BMP180;57391;51.306;22.680;2023-03-14T04:48:36;98120.60;;;8.20
70050;BMP180;57391;51.306;22.680;2023-03-14T04:51:05;98124.80;;;8.20
70050;BMP180;57391;51.306;22.680;2023-03-14T04:53:34;98125.40;;;8.18
70050;BMP180;57391;51.306;22.680;2023-03-14T04:56:06;98122.20;;;8.16
70050;BMP180;57391;51.306;22.680;2023-03-14T04:58:37;98122.40;;;8.20
70050;BMP180;57391;51.306;22.680;2023-03-14T05:01:06;98116.00;;;8.20
70050;BMP180;57391;51.306;22.680;2023-03-14T05:03:52;98106.80;;;8.20
70050;BMP180;57391;51.306;22.680;2023-03-14T05:06:46;98103.60;;;8.20
70050;BMP180;57391;51.306;22.680;2023-03-14T05:09:42;98100.00;;;8.22
70050;BMP180;57391;51.306;22.680;2023-03-14T05:12:23;98103.40;;;8.26
70050;BMP180;57391;51.306;22.680;2023-03-14T05:15:08;98096.00;;;8.30
70050;BMP180;57391;51.306;22.680;2023-03-14T05:17:53;98102.20;;;8.30
70050;BMP180;57391;51.306;22.680;2023-03-14T05:20:39;98100.60;;;8.30
70050;BMP180;57391;51.306;22.680;2023-03-14T05:23:21;98102.00;;;8.40
70050;BMP180;57391;51.306;22.680;2023-03-14T05:25:59;98098.40;;;8.42
70050;BMP180;57391;51.306;22.680;2023-03-14T05:28:46;98093.00;;;8.52
70050;BMP180;57391;51.306;22.680;2023-03-14T05:31:24;98088.40;;;8.60
70050;BMP180;57391;51.306;22.680;2023-03-14T05:34:11;98081.20;;;8.70
70050;BMP180;57391;51.306;22.680;2023-03-14T05:36:58;98069.60;;;8.72
70050;BMP180;57391;51.306;22.680;2023-03-14T05:39:34;98075.80;;;8.80
70050;BMP180;57391;51.306;22.680;2023-03-14T05:42:10;98073.40;;;9.00
70050;BMP180;57391;51.306;22.680;2023-03-14T05:45:05;98073.60;;;9.22
70050;BMP180;57391;51.306;22.680;2023-03-14T05:47:51;98067.00;;;9.40
70050;BMP180;57391;51.306;22.680;2023-03-14T05:50:35;98062.20;;;9.46
70050;BMP180;57391;51.306;22.680;2023-03-14T05:53:21;98059.20;;;9.50
70050;BMP180;57391;51.306;22.680;2023-03-14T05:55:56;98060.60;;;9.60
70050;BMP180;57391;51.306;22.680;2023-03-14T05:58:38;98063.00;;;10.00
70050;BMP180;57391;51.306;22.680;2023-03-14T06:01:43;98066.20;;;10.20
70050;BMP180;57391;51.306;22.680;2023-03-14T06:04:14;98059.20;;;10.34
70050;BMP180;57391;51.306;22.680;2023-03-14T06:06:42;98058.20;;;10.60
70050;BMP180;57391;51.306;22.680;2023-03-14T06:09:10;98056.20;;;10.70
70050;BMP180;57391;51.306;22.680;2023-03-14T06:11:39;98042.60;;;10.62
70050;BMP180;57391;51.306;22.680;2023-03-14T06:14:07;98037.20;;;10.88
70050;BMP180;57391;51.306;22.680;2023-03-14T06:16:34;98052.60;;;11.10
70050;BMP180;57391;51.306;22.680;2023-03-14T06:19:01;98056.00;;;11.28
70050;BMP180;57391;51.306;22.680;2023-03-14T06:21:29;98057.80;;;11.42
70050;BMP180;57391;51.306;22.680;2023-03-14T06:23:57;98059.40;;;11.60
70050;BMP180;57391;51.306;22.680;2023-03-14T06:26:26;98062.20;;;11.80
70050;BMP180;57391;51.306;22.680;2023-03-14T06:28:53;98068.80;;;11.80
70050;BMP180;57391;51.306;22.680;2023-03-14T06:31:21;98068.80;;;11.82
70050;BMP180;57391;51.306;22.680;2023-03-14T06:33:53;98065.40;;;11.80
70050;BMP180;57391;51.306;22.680;2023-03-14T06:36:21;98065.20;;;11.84
70050;BMP180;57391;51.306;22.680;2023-03-14T06:38:48;98060.40;;;11.88
70050;BMP180;57391;51.306;22.680;2023-03-14T06:41:16;98052.20;;;11.90
70050;BMP180;57391;51.306;22.680;2023-03-14T06:43:45;98049.20;;;11.90
70050;BMP180;57391;51.306;22.680;2023-03-14T06:46:12;98050.00;;;11.90
70050;BMP180;57391;51.306;22.680;2023-03-14T06:48:41;98048.20;;;12.00
70050;BMP180;57391;51.306;22.680;2023-03-14T06:51:08;98053.00;;;12.00
70050;BMP180;57391;51.306;22.680;2023-03-14T06:53:35;98045.40;;;12.10
70050;BMP180;57391;51.306;22.680;2023-03-14T06:56:03;98037.00;;;12.10
70050;BMP180;57391;51.306;22.680;2023-03-14T06:58:32;98029.00;;;12.12
70050;BMP180;57391;51.306;22.680;2023-03-14T07:00:59;98017.80;;;12.10
70050;BMP180;57391;51.306;22.680;2023-03-14T07:03:29;98017.00;;;12.10
70050;BMP180;57391;51.306;22.680;2023-03-14T07:05:57;98005.20;;;12.10
70050;BMP180;57391;51.306;22.680;2023-03-14T07:08:24;98008.20;;;12.10
70050;BMP180;57391;51.306;22.680;2023-03-14T07:10:51;97999.20;;;12.10
70050;BMP180;57391;51.306;22.680;2023-03-14T07:13:18;97997.00;;;12.20
70050;BMP180;57391;51.306;22.680;2023-03-14T07:15:53;98001.60;;;12.22
70050;BMP180;57391;51.306;22.680;2023-03-14T07:18:21;97998.60;;;12.30
70050;BMP180;57391;51.306;22.680;2023-03-14T07:20:48;98002.20;;;12.30
70050;BMP180;57391;51.306;22.680;2023-03-14T07:23:15;97993.00;;;12.30
70050;BMP180;57391;51.306;22.680;2023-03-14T07:25:48;97994.40;;;12.40
70050;BMP180;57391;51.306;22.680;2023-03-14T07:28:15;97987.00;;;12.60
70050;BMP180;57391;51.306;22.680;2023-03-14T07:30:43;97982.60;;;12.86
70050;BMP180;57391;51.306;22.680;2023-03-14T07:33:16;97977.20;;;13.10
70050;BMP180;57391;51.306;22.680;2023-03-14T07:35:44;97976.40;;;13.30
70050;BMP180;57391;51.306;22.680;2023-03-14T07:38:11;97981.60;;;13.50
70050;BMP180;57391;51.306;22.680;2023-03-14T07:40:42;97973.20;;;13.78
70050;BMP180;57391;51.306;22.680;2023-03-14T07:43:10;97982.00;;;14.00
70050;BMP180;57391;51.306;22.680;2023-03-14T07:45:46;97983.00;;;14.00
70050;BMP180;57391;51.306;22.680;2023-03-14T07:48:14;97967.20;;;13.98
70050;BMP180;57391;51.306;22.680;2023-03-14T07:50:41;97972.60;;;14.10
70050;BMP180;57391;51.306;22.680;2023-03-14T07:53:08;97963.80;;;14.20
70050;BMP180;57391;51.306;22.680;2023-03-14T07:55:36;97966.40;;;14.48
70050;BMP180;57391;51.306;22.680;2023-03-14T07:58:03;97964.60;;;14.70
70050;BMP180;57391;51.306;22.680;2023-03-14T08:00:30;97966.40;;;14.80
70050;BMP180;57391;51.306;22.680;2023-03-14T08:02:58;97959.60;;;14.80
70050;BMP180;57391;51.306;22.680;2023-03-14T08:05:25;97958.60;;;14.70
70050;BMP180;57391;51.306;22.680;2023-03-14T08:07:53;97958.20;;;14.70
70050;BMP180;57391;51.306;22.680;2023-03-14T08:10:21;97962.00;;;14.70
70050;BMP180;57391;51.306;22.680;2023-03-14T08:12:51;97955.60;;;14.70
70050;BMP180;57391;51.306;22.680;2023-03-14T08:15:18;97948.80;;;14.80
70050;BMP180;57391;51.306;22.680;2023-03-14T08:17:45;97947.40;;;14.80
70050;BMP180;57391;51.306;22.680;2023-03-14T08:20:18;97949.60;;;14.90
70050;BMP180;57391;51.306;22.680;2023-03-14T08:22:46;97962.80;;;14.90
70050;BMP180;57391;51.306;22.680;2023-03-14T08:25:14;97954.00;;;14.90
70050;BMP180;57391;51.306;22.680;2023-03-14T08:27:43;97949.60;;;14.90
70050;BMP180;57391;51.306;22.680;2023-03-14T08:30:13;97951.80;;;14.90
70050;BMP180;57391;51.306;22.680;2023-03-14T08:32:40;97953.00;;;14.90
70050;BMP180;57391;51.306;22.680;2023-03-14T08:35:09;97950.80;;;14.90
70050;BMP180;57391;51.306;22.680;2023-03-14T08:37:37;97952.40;;;14.90
70050;BMP180;57391;51.306;22.680;2023-03-14T08:40:06;97943.40;;;14.80
70050;BMP180;57391;51.306;22.680;2023-03-14T08:42:38;97939.40;;;14.70
70050;BMP180;57391;51.306;22.680;2023-03-14T08:45:07;97933.40;;;14.60
70050;BMP180;57391;51.306;22.680;2023-03-14T08:47:35;97938.60;;;14.50
70050;BMP180;57391;51.306;22.680;2023-03-14T08:50:04;97936.40;;;14.50
70050;BMP180;57391;51.306;22.680;2023-03-14T08:52:32;97934.60;;;14.40
70050;BMP180;57391;51.306;22.680;2023-03-14T08:54:59;97941.40;;;14.40
70050;BMP180;57391;51.306;22.680;2023-03-14T08:57:27;97936.40;;;14.30
70050;BMP180;57391;51.306;22.680;2023-03-14T08:59:55;97947.20;;;14.30
70050;BMP180;57391;51.306;22.680;2023-03-14T09:02:24;97943.20;;;14.30
70050;BMP180;57391;51.306;22.680;2023-03-14T09:04:53;97940.60;;;14.32
70050;BMP180;57391;51.306;22.680;2023-03-14T09:07:20;97945.20;;;14.40
70050;BMP180;57391;51.306;22.680;2023-03-14T09:09:48;97945.20;;;14.50
70050;BMP180;57391;51.306;22.680;2023-03-14T09:12:15;97934.60;;;14.50
70050;BMP180;57391;51.306;22.680;2023-03-14T09:14:42;97937.60;;;14.50
70050;BMP180;57391;51.306;22.680;2023-03-14T09:17:09;97927.00;;;14.50
70050;BMP180;57391;51.306;22.680;2023-03-14T09:19:36;97936.20;;;14.48
70050;BMP180;57391;51.306;22.680;2023-03-14T09:22:03;97929.00;;;14.56
70050;BMP180;57391;51.306;22.680;2023-03-14T09:24:30;97936.00;;;14.70
70050;BMP180;57391;51.306;22.680;2023-03-14T09:26:58;97931.40;;;14.80
70050;BMP180;57391;51.306;22.680;2023-03-14T09:29:25;97913.00;;;15.00
70050;BMP180;57391;51.306;22.680;2023-03-14T09:31:52;97919.20;;;15.10
70050;BMP180;57391;51.306;22.680;2023-03-14T09:34:19;97907.40;;;15.20
70050;BMP180;57391;51.306;22.680;2023-03-14T09:36:46;97911.20;;;15.30
70050;BMP180;57391;51.306;22.680;2023-03-14T09:39:14;97919.60;;;15.38
70050;BMP180;57391;51.306;22.680;2023-03-14T09:41:44;97897.60;;;15.40
70050;BMP180;57391;51.306;22.680;2023-03-14T09:44:35;97920.40;;;15.50
70050;BMP180;57391;51.306;22.680;2023-03-14T09:47:09;97904.20;;;15.50
70050;BMP180;57391;51.306;22.680;2023-03-14T09:49:40;97905.80;;;15.60
70050;BMP180;57391;51.306;22.680;2023-03-14T09:52:17;97922.40;;;15.70
70050;BMP180;57391;51.306;22.680;2023-03-14T09:55:13;97922.00;;;15.76
70050;BMP180;57391;51.306;22.680;2023-03-14T09:57:45;97919.40;;;15.80
70050;BMP180;57391;51.306;22.680;2023-03-14T10:00:21;97916.00;;;15.80
70050;BMP180;57391;51.306;22.680;2023-03-14T10:03:21;97914.60;;;15.80
70050;BMP180;57391;51.306;22.680;2023-03-14T10:05:49;97915.80;;;15.82
70050;BMP180;57391;51.306;22.680;2023-03-14T10:08:16;97909.00;;;15.90
70050;BMP180;57391;51.306;22.680;2023-03-14T10:10:44;97896.80;;;15.94
70050;BMP180;57391;51.306;22.680;2023-03-14T10:13:27;97891.40;;;16.00
70050;BMP180;57391;51.306;22.680;2023-03-14T10:16:04;97897.80;;;16.06
70050;BMP180;57391;51.306;22.680;2023-03-14T10:18:35;97894.80;;;16.10
70050;BMP180;57391;51.306;22.680;2023-03-14T10:21:17;97898.60;;;16.20
70050;BMP180;57391;51.306;22.680;2023-03-14T10:23:47;97899.20;;;16.34
70050;BMP180;57391;51.306;22.680;2023-03-14T10:26:24;97897.80;;;16.42
70050;BMP180;57391;51.306;22.680;2023-03-14T10:29:10;97891.00;;;16.50
70050;BMP180;57391;51.306;22.680;2023-03-14T10:32:00;97886.20;;;16.50
70050;BMP180;57391;51.306;22.680;2023-03-14T10:34:32;97883.20;;;16.60
70050;BMP180;57391;51.306;22.680;2023-03-14T10:37:17;97899.60;;;16.60
70050;BMP180;57391;51.306;22.680;2023-03-14T10:39:49;97899.20;;;16.60
70050;BMP180;57391;51.306;22.680;2023-03-14T10:42:27;97892.60;;;16.58
70050;BMP180;57391;51.306;22.680;2023-03-14T10:45:05;97892.20;;;16.60
70050;BMP180;57391;51.306;22.680;2023-03-14T10:47:34;97889.20;;;16.62
70050;BMP180;57391;51.306;22.680;2023-03-14T10:52:52;97866.20;;;16.80
70050;BMP180;57391;51.306;22.680;2023-03-14T10:55:20;97858.00;;;16.90
70050;BMP180;57391;51.306;22.680;2023-03-14T10:57:47;97847.20;;;17.00
70050;BMP180;57391;51.306;22.680;2023-03-14T11:00:22;97865.20;;;17.10
70050;BMP180;57391;51.306;22.680;2023-03-14T11:03:12;97860.40;;;17.10
70050;BMP180;57391;51.306;22.680;2023-03-14T11:05:49;97857.00;;;16.90
70050;BMP180;57391;51.306;22.680;2023-03-14T11:08:45;97855.00;;;16.80
70050;BMP180;57391;51.306;22.680;2023-03-14T11:11:22;97860.80;;;16.68
70050;BMP180;57391;51.306;22.680;2023-03-14T11:14:29;97845.20;;;16.60
70050;BMP180;57391;51.306;22.680;2023-03-14T11:17:22;97861.20;;;16.50
70050;BMP180;57391;51.306;22.680;2023-03-14T11:20:22;97855.80;;;16.50
70050;BMP180;57391;51.306;22.680;2023-03-14T11:30:57;97851.00;;;16.60
70050;BMP180;57391;51.306;22.680;2023-03-14T11:33:36;97844.40;;;16.70
70050;BMP180;57391;51.306;22.680;2023-03-14T11:36:10;97839.60;;;16.80
70050;BMP180;57391;51.306;22.680;2023-03-14T11:38:57;97846.40;;;16.98
70050;BMP180;57391;51.306;22.680;2023-03-14T11:41:33;97835.40;;;17.00
70050;BMP180;57391;51.306;22.680;2023-03-14T11:44:19;97844.40;;;17.00
70050;BMP180;57391;51.306;22.680;2023-03-14T11:46:59;97834.80;;;17.06
70050;BMP180;57391;51.306;22.680;2023-03-14T11:52:11;97840.40;;;17.40
70050;BMP180;57391;51.306;22.680;2023-03-14T11:54:50;97834.40;;;17.50
70050;BMP180;57391;51.306;22.680;2023-03-14T11:57:21;97834.40;;;17.60
70050;BMP180;57391;51.306;22.680;2023-03-14T12:02:41;97848.40;;;17.70
70050;BMP180;57391;51.306;22.680;2023-03-14T12:08:52;97827.40;;;17.62
70050;BMP180;57391;51.306;22.680;2023-03-14T12:14:01;97827.80;;;17.30
70050;BMP180;57391;51.306;22.680;2023-03-14T12:16:38;97828.00;;;17.22
70050;BMP180;57391;51.306;22.680;2023-03-14T12:21:58;97831.00;;;17.30
70050;BMP180;57391;51.306;22.680;2023-03-14T12:24:34;97833.80;;;17.40
70050;BMP180;57391;51.306;22.680;2023-03-14T12:27:05;97835.20;;;17.40
70050;BMP180;57391;51.306;22.680;2023-03-14T12:29:59;97835.60;;;17.40
70050;BMP180;57391;51.306;22.680;2023-03-14T12:32:27;97832.80;;;17.54
70050;BMP180;57391;51.306;22.680;2023-03-14T12:34:55;97829.40;;;17.60
70050;BMP180;57391;51.306;22.680;2023-03-14T12:37:35;97824.80;;;17.60
70050;BMP180;57391;51.306;22.680;2023-03-14T12:40:19;97823.00;;;17.70
70050;BMP180;57391;51.306;22.680;2023-03-14T12:43:01;97827.00;;;17.80
70050;BMP180;57391;51.306;22.680;2023-03-14T12:45:35;97820.60;;;17.90
70050;BMP180;57391;51.306;22.680;2023-03-14T12:48:22;97817.00;;;18.00
70050;BMP180;57391;51.306;22.680;2023-03-14T12:51:20;97827.00;;;18.00
70050;BMP180;57391;51.306;22.680;2023-03-14T12:59:31;97822.60;;;17.90
70050;BMP180;57391;51.306;22.680;2023-03-14T13:05:16;97822.60;;;17.70
70050;BMP180;57391;51.306;22.680;2023-03-14T13:10:21;97818.40;;;17.50
70050;BMP180;57391;51.306;22.680;2023-03-14T13:13:03;97816.80;;;17.38
70050;BMP180;57391;51.306;22.680;2023-03-14T13:15:45;97821.60;;;17.30
70050;BMP180;57391;51.306;22.680;2023-03-14T13:18:19;97816.40;;;17.20
70050;BMP180;57391;51.306;22.680;2023-03-14T13:20:53;97828.40;;;17.10
70050;BMP180;57391;51.306;22.680;2023-03-14T13:23:28;97831.20;;;16.90
70050;BMP180;57391;51.306;22.680;2023-03-14T13:25:57;97833.00;;;16.80
70050;BMP180;57391;51.306;22.680;2023-03-14T13:28:27;97826.40;;;16.66
70050;BMP180;57391;51.306;22.680;2023-03-14T13:30:59;97838.40;;;16.60
70050;BMP180;57391;51.306;22.680;2023-03-14T13:33:27;97837.40;;;16.50
70050;BMP180;57391;51.306;22.680;2023-03-14T13:36:01;97836.80;;;16.40
70050;BMP180;57391;51.306;22.680;2023-03-14T13:38:35;97840.20;;;16.30
70050;BMP180;57391;51.306;22.680;2023-03-14T13:41:07;97836.20;;;16.30
70050;BMP180;57391;51.306;22.680;2023-03-14T13:43:43;97840.80;;;16.20
70050;BMP180;57391;51.306;22.680;2023-03-14T13:46:21;97837.20;;;16.10
70050;BMP180;57391;51.306;22.680;2023-03-14T13:49:04;97843.60;;;16.00
70050;BMP180;57391;51.306;22.680;2023-03-14T13:51:32;97844.00;;;15.88
70050;BMP180;57391;51.306;22.680;2023-03-14T13:54:00;97843.80;;;15.78
70050;BMP180;57391;51.306;22.680;2023-03-14T13:56:32;97832.00;;;15.70
70050;BMP180;57391;51.306;22.680;2023-03-14T13:59:00;97832.40;;;15.60
70050;BMP180;57391;51.306;22.680;2023-03-14T14:01:34;97833.40;;;15.58
70050;BMP180;57391;51.306;22.680;2023-03-14T14:04:15;97839.00;;;15.50
70050;BMP180;57391;51.306;22.680;2023-03-14T14:06:54;97834.80;;;15.50
70050;BMP180;57391;51.306;22.680;2023-03-14T14:09:35;97836.60;;;15.50
70050;BMP180;57391;51.306;22.680;2023-03-14T14:12:31;97836.80;;;15.50
70050;BMP180;57391;51.306;22.680;2023-03-14T14:15:19;97843.00;;;15.40
70050;BMP180;57391;51.306;22.680;2023-03-14T14:17:53;97842.20;;;15.40
70050;BMP180;57391;51.306;22.680;2023-03-14T14:20:38;97842.80;;;15.40
70050;BMP180;57391;51.306;22.680;2023-03-14T14:23:12;97847.00;;;15.38
70050;BMP180;57391;51.306;22.680;2023-03-14T14:25:40;97844.40;;;15.30
70050;BMP180;57391;51.306;22.680;2023-03-14T14:28:30;97841.60;;;15.30
70050;BMP180;57391;51.306;22.680;2023-03-14T14:31:22;97848.20;;;15.22
70050;BMP180;57391;51.306;22.680;2023-03-14T14:36:43;97850.20;;;15.20
70050;BMP180;57391;51.306;22.680;2023-03-14T14:39:20;97848.60;;;15.10
70050;BMP180;57391;51.306;22.680;2023-03-14T14:41:50;97851.00;;;15.10
70050;BMP180;57391;51.306;22.680;2023-03-14T14:44:28;97844.80;;;15.00
70050;BMP180;57391;51.306;22.680;2023-03-14T14:47:03;97844.60;;;15.00
70050;BMP180;57391;51.306;22.680;2023-03-14T14:49:33;97845.00;;;14.92
70050;BMP180;57391;51.306;22.680;2023-03-14T14:52:09;97849.20;;;14.90
70050;BMP180;57391;51.306;22.680;2023-03-14T14:54:45;97845.60;;;14.80
70050;BMP180;57391;51.306;22.680;2023-03-14T14:57:26;97849.00;;;14.80
70050;BMP180;57391;51.306;22.680;2023-03-14T15:00:07;97850.80;;;14.70
70050;BMP180;57391;51.306;22.680;2023-03-14T15:02:45;97851.00;;;14.70
70050;BMP180;57391;51.306;22.680;2023-03-14T15:05:20;97853.40;;;14.60
70050;BMP180;57391;51.306;22.680;2023-03-14T15:07:48;97861.80;;;14.60
70050;BMP180;57391;51.306;22.680;2023-03-14T15:10:23;97864.20;;;14.50
70050;BMP180;57391;51.306;22.680;2023-03-14T15:12:51;97861.40;;;14.50
70050;BMP180;57391;51.306;22.680;2023-03-14T15:15:19;97867.40;;;14.50
70050;BMP180;57391;51.306;22.680;2023-03-14T15:17:46;97864.20;;;14.40
70050;BMP180;57391;51.306;22.680;2023-03-14T15:20:16;97860.40;;;14.40